Time;durP1;ratioP1;P1;durP2;ratioP2;P2;SDS_P1;SDS_P2;PMS_P1;PMS_P2;Temp;Humidity;BMP_temperature;BMP_pressure;BME280_temperature;BME280_humidity;BME280_pressure;Samples;Min_cycle;Max_cycle;Signal;HPM_P1;HPM_P2
2021/08/14 00:02:24;;;;;;;10.20;9.30;;;18.70;99.90;;;;;;5055193;28;20177;-67
2021/08/14 00:04:50;;;;;;;10.13;9.20;;;18.60;99.90;;;;;;5054033;28;20209;-67
2021/08/14 00:07:16;;;;;;;11.20;10.30;;;18.60;99.90;;;;;;5055102;28;20186;-67
2021/08/14 00:09:42;;;;;;;10.80;9.87;;;18.60;99.90;;;;;;5054356;28;20230;-67
2021/08/14 00:12:08;;;;;;;11.37;10.37;;;18.50;99.90;;;;;;5054999;28;20217;-67
2021/08/14 00:14:34;;;;;;;10.40;9.40;;;18.50;99.90;;;;;;5055015;28;20182;-67
2021/08/14 00:17:00;;;;;;;9.97;9.07;;;18.50;99.90;;;;;;5054344;28;20408;-67
2021/08/14 00:19:26;;;;;;;10.17;9.27;;;18.50;99.90;;;;;;5054596;28;20449;-66
2021/08/14 00:21:53;;;;;;;10.37;9.47;;;18.50;99.90;;;;;;5054177;28;20502;-67
2021/08/14 00:24:18;;;;;;;10.50;9.50;;;18.50;99.90;;;;;;5054809;28;20464;-67
2021/08/14 00:26:44;;;;;;;11.60;10.60;;;18.40;99.90;;;;;;5053784;28;20454;-67
2021/08/14 00:29:10;;;;;;;10.20;9.30;;;18.40;99.90;;;;;;5054961;28;20170;-66
2021/08/14 00:31:36;;;;;;;9.63;8.73;;;18.40;99.90;;;;;;5054597;28;20182;-67
2021/08/14 00:34:01;;;;;;;9.57;8.70;;;18.40;99.90;;;;;;5053964;28;20324;-66
2021/08/14 00:36:27;;;;;;;9.73;8.53;;;18.40;99.90;;;;;;5054757;28;20232;-66
2021/08/14 00:38:53;;;;;;;10.97;9.10;;;18.30;99.90;;;;;;5053901;28;20181;-66
2021/08/14 00:41:19;;;;;;;10.03;9.00;;;18.30;99.90;;;;;;5054486;28;20177;-66
2021/08/14 00:43:46;;;;;;;9.27;8.43;;;18.30;99.90;;;;;;5053487;28;20463;-67
2021/08/14 00:46:13;;;;;;;9.97;9.03;;;18.30;99.90;;;;;;5054390;28;20182;-67
2021/08/14 00:48:40;;;;;;;10.50;9.40;;;18.20;99.90;;;;;;5054021;28;20463;-66
2021/08/14 00:51:09;;;;;;;14.70;10.13;;;18.20;99.90;;;;;;5053734;28;20397;-67
2021/08/14 00:53:36;;;;;;;9.03;8.23;;;18.20;99.90;;;;;;5054250;28;20751;-67
2021/08/14 00:56:03;;;;;;;9.47;8.67;;;18.20;99.90;;;;;;5053550;28;20415;-66
2021/08/14 00:58:29;;;;;;;9.83;8.80;;;18.20;99.90;;;;;;5054132;28;20491;-66
2021/08/14 01:00:56;;;;;;;9.93;8.93;;;18.20;99.90;;;;;;5053492;28;20428;-67
2021/08/14 01:03:23;;;;;;;10.97;9.87;;;18.20;99.90;;;;;;5053935;28;20481;-66
2021/08/14 01:05:49;;;;;;;9.63;8.70;;;18.20;99.90;;;;;;5053363;28;20884;-67
2021/08/14 01:08:16;;;;;;;10.63;9.63;;;18.10;99.90;;;;;;5053920;28;20410;-66
2021/08/14 01:10:43;;;;;;;10.00;9.10;;;18.10;99.90;;;;;;5053885;28;20252;-67
2021/08/14 01:13:09;;;;;;;10.13;9.23;;;18.10;99.90;;;;;;5053527;28;20469;-66
2021/08/14 01:15:34;;;;;;;10.30;9.30;;;18.10;99.90;;;;;;5053606;28;20872;-66
2021/08/14 01:18:01;;;;;;;10.13;9.20;;;18.10;99.90;;;;;;5052526;28;20412;-67
2021/08/14 01:20:27;;;;;;;10.27;9.33;;;18.00;99.90;;;;;;5053900;28;20224;-66
2021/08/14 01:22:53;;;;;;;10.47;9.13;;;18.00;99.90;;;;;;5053007;28;20443;-67
2021/08/14 01:25:20;;;;;;;10.17;9.27;;;17.90;99.90;;;;;;5053280;28;20431;-66
2021/08/14 01:27:46;;;;;;;9.83;9.03;;;17.90;99.90;;;;;;5052997;28;20260;-67
2021/08/14 01:30:13;;;;;;;9.17;8.47;;;17.90;99.90;;;;;;5053474;28;20412;-66
2021/08/14 01:32:39;;;;;;;10.13;9.23;;;17.90;99.90;;;;;;5053478;28;20933;-66
2021/08/14 01:35:06;;;;;;;9.80;9.00;;;17.90;99.90;;;;;;5052790;28;20440;-66
2021/08/14 01:37:33;;;;;;;10.60;9.57;;;17.90;99.90;;;;;;5053383;28;20408;-66
2021/08/14 01:39:59;;;;;;;9.50;8.70;;;17.90;99.90;;;;;;5052723;28;20495;-67
2021/08/14 01:42:25;;;;;;;9.93;8.93;;;17.90;99.90;;;;;;5053270;28;20430;-66
2021/08/14 01:44:51;;;;;;;8.80;8.00;;;17.90;99.90;;;;;;5052549;28;20456;-67
2021/08/14 01:47:17;;;;;;;9.10;8.20;;;17.90;99.90;;;;;;5052954;28;20190;-67
2021/08/14 01:49:43;;;;;;;9.73;8.30;;;17.90;99.90;;;;;;5052753;28;21026;-66
2021/08/14 01:52:14;;;;;;;9.40;8.60;;;17.90;99.90;;;;;;5052528;28;20184;-67
2021/08/14 01:54:40;;;;;;;12.10;9.00;;;17.90;99.90;;;;;;5053133;28;20202;-66
2021/08/14 01:57:07;;;;;;;8.40;7.60;;;17.80;99.90;;;;;;5052482;28;20409;-67
2021/08/14 01:59:34;;;;;;;8.40;7.57;;;17.80;99.90;;;;;;5053250;28;20769;-66
2021/08/14 02:02:00;;;;;;;8.57;7.77;;;17.80;99.90;;;;;;5052323;28;20415;-67
2021/08/14 02:04:26;;;;;;;9.23;8.33;;;17.80;99.90;;;;;;5053061;28;20474;-67
2021/08/14 02:06:52;;;;;;;9.20;8.03;;;17.80;99.90;;;;;;5052209;28;20397;-67
2021/08/14 02:09:17;;;;;;;10.27;7.80;;;17.80;99.90;;;;;;5052843;28;20678;-67
2021/08/14 02:11:43;;;;;;;10.10;9.10;;;17.80;99.90;;;;;;5052811;28;20252;-67
2021/08/14 02:14:09;;;;;;;8.30;7.60;;;17.80;99.90;;;;;;5052140;28;20203;-67
2021/08/14 02:16:35;;;;;;;10.90;9.40;;;17.70;99.90;;;;;;5052754;28;20176;-67
2021/08/14 02:19:02;;;;;;;9.23;8.43;;;17.70;99.90;;;;;;5051975;28;20182;-67
2021/08/14 02:21:28;;;;;;;11.00;8.40;;;17.70;99.90;;;;;;5052653;28;20417;-66
2021/08/14 02:23:54;;;;;;;9.30;8.40;;;17.70;99.90;;;;;;5051973;28;20490;-67
2021/08/14 02:26:20;;;;;;;8.50;7.77;;;17.70;99.90;;;;;;5052787;28;20630;-67
2021/08/14 02:28:46;;;;;;;9.33;8.53;;;17.70;99.90;;;;;;5035045;28;20457;-66
2021/08/14 02:31:13;;;;;;;8.77;7.97;;;17.70;99.90;;;;;;5051944;28;20174;-66
2021/08/14 02:33:39;;;;;;;9.80;8.20;;;17.70;99.90;;;;;;5052565;28;20503;-67
2021/08/14 02:36:06;;;;;;;12.40;9.13;;;17.70;99.90;;;;;;5051895;28;20963;-66
2021/08/14 02:38:33;;;;;;;11.50;9.13;;;17.70;99.90;;;;;;5052522;28;20257;-66
2021/08/14 02:41:00;;;;;;;9.83;8.83;;;17.70;99.90;;;;;;5051831;28;20449;-67
2021/08/14 02:43:26;;;;;;;9.70;8.80;;;17.80;99.90;;;;;;5052355;28;20842;-67
2021/08/14 02:45:52;;;;;;;10.10;9.23;;;17.70;99.90;;;;;;5051743;28;20416;-67
2021/08/14 02:48:17;;;;;;;10.10;9.10;;;17.70;99.90;;;;;;5052305;28;20180;-67
2021/08/14 02:50:45;;;;;;;10.47;9.37;;;17.70;99.90;;;;;;5052505;28;20225;-66
2021/08/14 02:53:11;;;;;;;11.33;10.33;;;17.70;99.90;;;;;;5051426;28;20626;-66
2021/08/14 02:55:38;;;;;;;10.37;9.37;;;17.70;99.90;;;;;;5052593;28;20945;-66
2021/08/14 02:58:03;;;;;;;11.27;9.33;;;17.70;99.90;;;;;;5051724;28;20929;-67
2021/08/14 03:00:29;;;;;;;10.07;9.13;;;17.60;99.90;;;;;;5052291;28;20487;-67
2021/08/14 03:02:55;;;;;;;9.87;9.07;;;17.60;99.90;;;;;;5051624;28;20181;-66
2021/08/14 03:05:21;;;;;;;8.57;7.77;;;17.60;99.90;;;;;;5051909;28;20424;-67
2021/08/14 03:07:47;;;;;;;10.57;8.47;;;17.60;99.90;;;;;;5034366;28;20423;-66
2021/08/14 03:10:13;;;;;;;9.33;8.53;;;17.60;99.90;;;;;;5051321;28;20412;-67
2021/08/14 03:12:39;;;;;;;9.43;8.60;;;17.60;99.90;;;;;;5052293;28;20507;-66
2021/08/14 03:15:07;;;;;;;8.73;7.93;;;17.60;99.90;;;;;;5051497;28;20182;-66
2021/08/14 03:17:32;;;;;;;9.30;8.40;;;17.60;99.90;;;;;;5052144;28;20412;-66
2021/08/14 03:20:00;;;;;;;9.97;8.90;;;17.50;99.90;;;;;;5051129;28;20408;-67
2021/08/14 03:22:26;;;;;;;10.10;9.20;;;17.50;99.90;;;;;;5052088;28;20178;-66
2021/08/14 03:24:52;;;;;;;8.67;7.97;;;17.50;99.90;;;;;;5051819;28;20452;-68
2021/08/14 03:27:17;;;;;;;9.67;8.77;;;17.50;99.90;;;;;;5052019;28;20249;-66
2021/08/14 03:29:43;;;;;;;10.47;8.97;;;17.50;99.90;;;;;;5051680;28;20404;-67
2021/08/14 03:32:09;;;;;;;9.67;8.77;;;17.50;99.90;;;;;;5051357;28;20182;-67
2021/08/14 03:34:34;;;;;;;9.57;8.87;;;17.40;99.90;;;;;;5051952;28;20224;-66
2021/08/14 03:37:00;;;;;;;9.93;9.07;;;17.40;99.90;;;;;;5051354;28;20259;-67
2021/08/14 03:39:26;;;;;;;11.10;10.20;;;17.40;99.90;;;;;;5052396;28;20173;-66
2021/08/14 03:41:51;;;;;;;10.77;9.60;;;17.40;99.90;;;;;;5055643;28;20265;-66
2021/08/14 03:44:17;;;;;;;10.10;9.30;;;17.40;99.90;;;;;;5054582;28;20292;-67
2021/08/14 03:46:43;;;;;;;10.00;9.00;;;17.40;99.90;;;;;;5055525;28;20629;-66
2021/08/14 03:49:08;;;;;;;12.30;8.73;;;17.40;99.90;;;;;;5054948;28;20221;-67
2021/08/14 03:51:34;;;;;;;9.57;8.77;;;17.40;99.90;;;;;;5055699;28;20689;-66
2021/08/14 03:54:00;;;;;;;10.43;9.23;;;17.30;99.90;;;;;;5054705;28;20178;-67
2021/08/14 03:56:25;;;;;;;10.80;9.80;;;17.40;99.90;;;;;;5055351;28;20178;-66
2021/08/14 03:58:51;;;;;;;13.07;9.40;;;17.40;99.90;;;;;;5055360;28;20256;-66
2021/08/14 04:01:17;;;;;;;11.07;9.07;;;17.40;99.90;;;;;;5054678;28;20227;-66
2021/08/14 04:03:42;;;;;;;10.47;9.23;;;17.40;99.90;;;;;;5055067;28;20206;-66
2021/08/14 04:06:08;;;;;;;9.87;8.97;;;17.40;99.90;;;;;;5054596;28;20633;-67
2021/08/14 04:08:34;;;;;;;10.37;9.47;;;17.40;99.90;;;;;;5055314;28;20268;-67
2021/08/14 04:11:00;;;;;;;11.00;10.00;;;17.30;99.90;;;;;;5036706;28;20177;-67
2021/08/14 04:13:25;;;;;;;10.40;9.53;;;17.30;99.90;;;;;;5054704;28;20216;-66
2021/08/14 04:15:51;;;;;;;10.47;9.53;;;17.30;99.90;;;;;;5055236;28;20526;-66
2021/08/14 04:18:17;;;;;;;10.50;9.60;;;17.20;99.90;;;;;;5054228;28;20198;-66
2021/08/14 04:20:42;;;;;;;10.60;9.70;;;17.30;99.90;;;;;;5055040;28;20178;-66
2021/08/14 04:23:08;;;;;;;10.00;9.10;;;17.30;99.90;;;;;;5054190;28;20193;-66
2021/08/14 04:25:34;;;;;;;10.00;9.20;;;17.30;99.90;;;;;;5054839;28;20170;-67
2021/08/14 04:27:59;;;;;;;11.10;10.10;;;17.30;99.90;;;;;;5053710;28;20182;-67
2021/08/14 04:30:25;;;;;;;10.37;9.67;;;17.20;99.90;;;;;;5054705;28;20565;-67
2021/08/14 04:32:51;;;;;;;10.67;9.67;;;17.20;99.90;;;;;;5054697;28;20208;-66
2021/08/14 04:35:17;;;;;;;10.80;9.90;;;17.20;99.90;;;;;;5054021;28;20276;-66
2021/08/14 04:37:44;;;;;;;9.30;8.60;;;17.20;99.90;;;;;;5054567;28;20184;-66
2021/08/14 04:40:14;;;;;;;12.07;10.57;;;17.20;99.90;;;;;;5036230;28;20412;-67
2021/08/14 04:42:40;;;;;;;11.40;10.30;;;17.20;99.90;;;;;;5054486;28;20392;-67
2021/08/14 04:45:07;;;;;;;10.80;9.90;;;17.30;99.90;;;;;;5053476;28;20448;-67
2021/08/14 04:47:32;;;;;;;11.20;10.20;;;17.30;99.90;;;;;;5054263;28;20413;-66
2021/08/14 04:49:58;;;;;;;11.47;10.47;;;17.30;99.90;;;;;;5053592;28;20501;-67
2021/08/14 04:52:24;;;;;;;10.67;9.73;;;17.30;99.90;;;;;;5053051;28;20189;-67
2021/08/14 04:54:50;;;;;;;10.50;9.30;;;17.30;99.90;;;;;;5054258;28;20408;-66
2021/08/14 04:57:16;;;;;;;11.33;9.90;;;17.30;99.90;;;;;;5053585;28;20180;-67
2021/08/14 04:59:42;;;;;;;10.90;9.77;;;17.20;99.90;;;;;;5054329;28;20223;-66
2021/08/14 05:02:08;;;;;;;11.03;9.90;;;17.20;99.90;;;;;;5053509;28;20400;-67
2021/08/14 05:04:33;;;;;;;10.63;9.70;;;17.30;99.90;;;;;;5053926;28;20197;-67
2021/08/14 05:07:02;;;;;;;11.50;10.30;;;17.20;99.90;;;;;;5053425;28;20181;-67
2021/08/14 05:09:28;;;;;;;13.60;10.17;;;17.20;99.90;;;;;;5054041;28;20181;-67
2021/08/14 05:11:53;;;;;;;10.20;9.30;;;17.30;99.90;;;;;;5054315;28;20405;-66
2021/08/14 05:14:19;;;;;;;10.07;9.20;;;17.30;99.90;;;;;;5053500;28;20261;-67
2021/08/14 05:16:45;;;;;;;10.60;9.70;;;17.30;99.90;;;;;;5053879;28;20240;-67
2021/08/14 05:19:11;;;;;;;10.20;9.23;;;17.30;99.90;;;;;;5053013;28;20404;-67
2021/08/14 05:21:37;;;;;;;9.33;8.43;;;17.30;99.90;;;;;;5035859;28;20425;-67
2021/08/14 05:24:04;;;;;;;11.33;10.17;;;17.30;99.90;;;;;;5052971;28;20202;-67
2021/08/14 05:26:30;;;;;;;11.90;10.70;;;17.30;99.90;;;;;;5053292;28;20186;-67
2021/08/14 05:28:56;;;;;;;15.30;10.33;;;17.40;99.90;;;;;;5053554;28;20732;-67
2021/08/14 05:31:21;;;;;;;11.47;10.47;;;17.40;99.90;;;;;;5052944;28;20196;-66
2021/08/14 05:33:47;;;;;;;11.10;10.00;;;17.40;99.90;;;;;;5053495;28;20178;-67
2021/08/14 05:36:13;;;;;;;11.23;10.10;;;17.40;99.90;;;;;;5052863;28;20181;-67
2021/08/14 05:38:38;;;;;;;11.70;10.70;;;17.50;99.90;;;;;;5053461;28;20174;-67
2021/08/14 05:41:06;;;;;;;12.20;10.90;;;17.50;99.90;;;;;;5052753;28;20218;-67
2021/08/14 05:43:32;;;;;;;13.23;11.37;;;17.50;99.90;;;;;;5053237;28;20208;-66
2021/08/14 05:45:57;;;;;;;12.17;10.97;;;17.50;99.90;;;;;;5053193;28;20405;-66
2021/08/14 05:48:23;;;;;;;11.63;10.60;;;17.60;99.90;;;;;;5052192;28;20411;-67
2021/08/14 05:50:49;;;;;;;12.40;11.30;;;17.70;99.90;;;;;;5053211;28;20170;-67
2021/08/14 05:53:15;;;;;;;11.53;10.43;;;17.70;99.90;;;;;;5052567;28;20178;-66
2021/08/14 05:55:41;;;;;;;11.10;10.00;;;17.80;99.90;;;;;;5052878;28;20169;-66
2021/08/14 05:58:07;;;;;;;15.37;12.83;;;17.80;99.90;;;;;;5052276;28;20771;-67
2021/08/14 06:00:33;;;;;;;14.57;12.80;;;17.90;99.90;;;;;;5053047;28;20169;-66
2021/08/14 06:02:58;;;;;;;12.80;11.20;;;17.90;99.90;;;;;;5052683;28;20176;-67
2021/08/14 06:05:24;;;;;;;12.50;11.33;;;18.00;99.90;;;;;;5052324;28;20661;-66
2021/08/14 06:07:50;;;;;;;15.00;12.93;;;18.10;99.90;;;;;;5052954;28;20215;-67
2021/08/14 06:10:18;;;;;;;14.30;12.70;;;18.10;99.90;;;;;;5052319;28;20199;-67
2021/08/14 06:12:44;;;;;;;13.13;11.93;;;18.10;99.90;;;;;;5052875;28;20428;-67
2021/08/14 06:15:11;;;;;;;13.13;11.80;;;18.20;99.90;;;;;;5051928;28;20869;-67
2021/08/14 06:17:37;;;;;;;16.37;14.60;;;18.30;99.90;;;;;;5052657;28;20911;-67
2021/08/14 06:20:05;;;;;;;17.37;14.80;;;18.30;99.90;;;;;;5052246;28;20502;-67
2021/08/14 06:22:30;;;;;;;14.13;12.70;;;18.40;99.90;;;;;;5052691;28;20969;-67
2021/08/14 06:24:56;;;;;;;14.30;12.97;;;18.50;99.90;;;;;;5052615;28;20443;-66
2021/08/14 06:27:22;;;;;;;13.43;12.13;;;18.50;99.90;;;;;;5052313;28;20440;-67
2021/08/14 06:29:48;;;;;;;13.17;11.77;;;18.60;99.90;;;;;;5052622;28;20177;-67
2021/08/14 06:32:14;;;;;;;14.17;12.70;;;18.70;99.90;;;;;;5051970;28;20174;-67
2021/08/14 06:34:39;;;;;;;14.00;12.30;;;18.80;99.90;;;;;;5052577;28;20428;-67
2021/08/14 06:37:07;;;;;;;14.07;12.57;;;18.80;99.90;;;;;;5051936;28;20602;-67
2021/08/14 06:39:33;;;;;;;14.10;12.63;;;18.90;99.90;;;;;;5052512;28;20260;-67
2021/08/14 06:41:58;;;;;;;13.17;11.80;;;19.00;99.90;;;;;;5052561;28;20400;-67
2021/08/14 06:44:24;;;;;;;12.53;11.20;;;19.00;99.90;;;;;;5051740;28;20483;-66
2021/08/14 06:46:50;;;;;;;14.03;11.90;;;19.10;99.90;;;;;;5052419;28;20181;-67
2021/08/14 06:49:15;;;;;;;13.20;11.00;;;19.20;99.90;;;;;;5051517;28;20233;-67
2021/08/14 06:51:41;;;;;;;10.87;9.87;;;19.30;99.90;;;;;;5052321;28;20270;-67
2021/08/14 06:54:08;;;;;;;12.53;11.33;;;19.40;99.90;;;;;;5051689;28;20182;-67
2021/08/14 06:56:34;;;;;;;11.47;10.37;;;19.40;99.90;;;;;;5052316;28;20626;-67
2021/08/14 06:58:59;;;;;;;12.17;11.03;;;19.50;99.90;;;;;;5052302;28;20404;-67
2021/08/14 07:01:26;;;;;;;12.47;11.27;;;19.60;99.90;;;;;;5052036;28;20423;-67
2021/08/14 07:03:52;;;;;;;10.80;9.30;;;19.70;99.90;;;;;;5052261;28;20286;-67
2021/08/14 07:06:26;;;;;;;17.67;13.17;;;19.80;99.90;;;;;;5051619;28;20436;-67
2021/08/14 07:08:52;;;;;;;13.50;11.73;;;19.80;99.90;;;;;;5052261;28;20170;-67
2021/08/14 07:11:19;;;;;;;12.13;10.83;;;20.00;99.90;;;;;;5051583;28;20814;-67
2021/08/14 07:13:45;;;;;;;13.30;12.00;;;20.00;99.90;;;;;;5052127;28;20507;-67
2021/08/14 07:16:12;;;;;;;10.60;9.70;;;20.10;99.90;;;;;;5054918;28;20891;-67
2021/08/14 07:18:37;;;;;;;11.03;9.27;;;20.10;99.90;;;;;;5056077;28;20483;-67
2021/08/14 07:21:04;;;;;;;9.87;8.90;;;20.20;99.90;;;;;;5056034;28;20502;-67
2021/08/14 07:23:30;;;;;;;11.87;9.00;;;20.30;99.90;;;;;;5055014;28;20606;-67
2021/08/14 07:25:55;;;;;;;10.20;9.10;;;20.40;99.90;;;;;;5055572;28;20412;-67
2021/08/14 07:28:21;;;;;;;11.80;9.50;;;20.40;99.90;;;;;;5055220;28;20174;-67
2021/08/14 07:30:47;;;;;;;9.50;8.30;;;20.50;99.90;;;;;;5055812;28;20255;-67
2021/08/14 07:33:16;;;;;;;13.37;9.60;;;20.60;99.90;;;;;;5054994;28;20173;-67
2021/08/14 07:35:43;;;;;;;8.80;7.90;;;20.70;99.90;;;;;;5055570;28;20408;-67
2021/08/14 07:38:09;;;;;;;9.23;8.33;;;20.70;99.90;;;;;;5055074;28;20489;-67
2021/08/14 07:40:35;;;;;;;9.77;7.23;;;20.90;99.90;;;;;;5055508;28;20463;-67
2021/08/14 07:43:02;;;;;;;9.23;7.37;;;20.90;99.70;;;;;;5055639;28;20423;-67
2021/08/14 07:45:28;;;;;;;8.23;7.30;;;21.00;99.20;;;;;;5054889;28;20263;-67
2021/08/14 07:47:53;;;;;;;9.63;8.70;;;21.10;98.40;;;;;;5037714;28;20880;-67
2021/08/14 07:50:24;;;;;;;7.50;6.10;;;21.20;97.80;;;;;;5054401;28;20220;-67
2021/08/14 07:52:51;;;;;;;6.53;5.93;;;21.30;97.80;;;;;;5055401;28;20170;-67
2021/08/14 07:55:17;;;;;;;9.50;7.30;;;21.40;97.30;;;;;;5054770;28;20416;-67
2021/08/14 07:57:43;;;;;;;6.80;5.67;;;21.50;96.30;;;;;;5055362;28;20796;-67
2021/08/14 08:00:12;;;;;;;7.37;6.30;;;21.60;96.50;;;;;;5054664;28;20400;-67
2021/08/14 08:02:38;;;;;;;8.43;7.10;;;21.70;96.20;;;;;;5055439;28;20491;-67
2021/08/14 08:05:05;;;;;;;6.40;5.90;;;21.80;96.40;;;;;;5054828;28;20443;-67
2021/08/14 08:07:31;;;;;;;6.30;5.50;;;21.90;96.40;;;;;;5054505;28;20484;-67
2021/08/14 08:09:57;;;;;;;8.10;7.03;;;22.00;96.60;;;;;;5055180;28;20440;-67
2021/08/14 08:12:23;;;;;;;6.30;5.70;;;22.00;95.70;;;;;;5054448;28;20926;-67
2021/08/14 08:14:50;;;;;;;8.47;6.10;;;22.10;95.30;;;;;;5054954;28;20887;-67
2021/08/14 08:17:16;;;;;;;9.27;6.37;;;22.20;95.60;;;;;;5054359;28;20462;-67
2021/08/14 08:19:42;;;;;;;9.20;6.20;;;22.30;95.40;;;;;;5036916;28;20413;-67
2021/08/14 08:22:07;;;;;;;8.17;5.97;;;22.40;94.70;;;;;;5054825;28;20938;-67
2021/08/14 08:24:33;;;;;;;6.80;5.77;;;22.50;94.90;;;;;;5054047;28;20204;-67
2021/08/14 08:26:59;;;;;;;7.07;6.30;;;22.60;94.90;;;;;;5054464;28;20609;-67
2021/08/14 08:29:24;;;;;;;6.90;6.30;;;22.60;94.70;;;;;;5054118;28;20220;-67
2021/08/14 08:31:50;;;;;;;8.43;6.73;;;22.70;94.50;;;;;;5054953;28;20173;-67
2021/08/14 08:34:18;;;;;;;8.93;6.70;;;22.80;94.00;;;;;;5054057;28;20239;-67
2021/08/14 08:36:43;;;;;;;8.30;7.53;;;22.90;94.20;;;;;;5054545;28;20180;-67
2021/08/14 08:39:09;;;;;;;8.00;7.20;;;23.00;94.30;;;;;;5054543;28;20868;-67
2021/08/14 08:41:35;;;;;;;8.87;7.57;;;23.00;93.80;;;;;;5054160;28;20577;-67
2021/08/14 08:44:02;;;;;;;9.50;6.17;;;23.10;93.90;;;;;;5054394;28;20205;-67
2021/08/14 08:46:30;;;;;;;6.60;6.00;;;23.30;93.40;;;;;;5054035;28;20419;-67
2021/08/14 08:48:57;;;;;;;6.73;6.03;;;23.40;93.30;;;;;;5032849;28;20493;-67
2021/08/14 08:51:25;;;;;;;6.60;6.00;;;23.50;93.30;;;;;;5033885;28;20402;-67
2021/08/14 08:53:52;;;;;;;7.50;6.70;;;23.60;93.40;;;;;;5034322;28;20488;-67
2021/08/14 08:56:17;;;;;;;7.17;6.47;;;23.70;93.20;;;;;;5033986;28;20750;-67
2021/08/14 08:58:43;;;;;;;7.40;6.37;;;23.90;93.40;;;;;;5034240;28;20393;-67
2021/08/14 09:01:09;;;;;;;9.80;6.33;;;23.90;92.40;;;;;;5034199;28;20236;-67
2021/08/14 09:03:35;;;;;;;7.10;5.97;;;24.10;92.30;;;;;;5032319;28;20202;-67
2021/08/14 09:06:01;;;;;;;7.57;6.80;;;24.20;92.90;;;;;;5034096;28;20471;-67
2021/08/14 09:08:27;;;;;;;6.20;5.60;;;24.30;91.80;;;;;;5033488;28;20409;-67
2021/08/14 09:11:14;;;;;;;11.00;9.03;;;24.50;91.60;;;;;;5034076;28;20637;-67
2021/08/14 09:14:06;;;;;;;7.90;7.10;;;24.60;90.60;;;;;;5034121;28;20253;-67
2021/08/14 09:16:32;;;;;;;6.77;5.97;;;24.70;89.50;;;;;;5033476;28;20397;-67
2021/08/14 09:18:59;;;;;;;10.30;6.27;;;24.80;90.00;;;;;;5033440;28;20424;-67
2021/08/14 09:21:34;;;;;;;6.60;5.43;;;25.00;88.70;;;;;;5032267;28;20186;-67
2021/08/14 09:24:06;;;;;;;6.27;5.67;;;25.10;88.60;;;;;;5033434;28;20479;-67
2021/08/14 09:26:38;;;;;;;6.83;5.93;;;25.20;88.00;;;;;;5033193;28;20402;-67
2021/08/14 09:29:06;;;;;;;6.47;5.70;;;25.30;86.20;;;;;;5033828;28;20406;-67
2021/08/14 09:31:51;;;;;;;7.20;5.10;;;25.50;83.70;;;;;;5031862;28;20453;-67
2021/08/14 09:34:22;;;;;;;6.27;5.67;;;25.60;82.90;;;;;;5032836;28;20775;-67
2021/08/14 09:37:03;;;;;;;6.20;5.60;;;25.60;81.00;;;;;;5033026;28;20868;-67
2021/08/14 09:39:31;;;;;;;7.43;5.20;;;25.80;81.00;;;;;;5032874;28;20463;-67
2021/08/14 09:42:07;;;;;;;5.60;4.60;;;25.90;81.10;;;;;;5033501;28;20478;-67
2021/08/14 09:44:37;;;;;;;5.27;4.73;;;26.00;76.40;;;;;;5032431;28;20452;-66
2021/08/14 09:47:11;;;;;;;7.37;5.97;;;26.10;77.00;;;;;;5033466;28;20879;-66
2021/08/14 09:49:57;;;;;;;6.97;5.23;;;26.30;77.00;;;;;;5043496;28;20498;-67
2021/08/14 09:52:24;;;;;;;5.50;5.00;;;26.30;76.50;;;;;;5052626;28;20426;-66
2021/08/14 09:54:52;;;;;;;4.70;4.40;;;26.40;76.60;;;;;;5053373;28;20489;-66
2021/08/14 09:57:19;;;;;;;7.10;5.27;;;26.50;76.50;;;;;;5052503;28;20412;-67
2021/08/14 09:59:46;;;;;;;7.30;5.30;;;26.60;73.10;;;;;;5053150;28;20415;-66
2021/08/14 10:02:22;;;;;;;6.10;5.00;;;26.70;73.40;;;;;;5052940;28;20467;-66
2021/08/14 10:04:48;;;;;;;5.63;5.03;;;26.80;73.00;;;;;;5052928;28;20487;-66
2021/08/14 10:07:15;;;;;;;6.23;4.90;;;26.60;70.50;;;;;;5052624;28;20504;-66
2021/08/14 10:09:45;;;;;;;5.83;4.93;;;26.70;73.80;;;;;;5052573;28;20410;-66
2021/08/14 10:12:13;;;;;;;7.97;5.23;;;26.70;70.90;;;;;;5052858;28;20405;-66
2021/08/14 10:14:40;;;;;;;5.20;4.80;;;26.80;69.10;;;;;;5052216;28;20906;-66
2021/08/14 10:17:07;;;;;;;5.07;4.57;;;26.90;70.50;;;;;;5052796;28;20888;-66
2021/08/14 10:19:33;;;;;;;5.47;4.97;;;27.00;69.40;;;;;;5051431;28;20457;-67
2021/08/14 10:21:59;;;;;;;7.03;4.90;;;27.00;69.00;;;;;;5052743;28;20892;-66
2021/08/14 10:24:25;;;;;;;6.00;5.20;;;27.10;67.30;;;;;;5051987;28;20936;-66
2021/08/14 10:27:09;;;;;;;5.70;5.10;;;27.00;69.60;;;;;;5052882;28;20809;-66
2021/08/14 10:29:49;;;;;;;5.63;4.77;;;27.10;66.30;;;;;;5051960;28;20392;-66
2021/08/14 10:32:38;;;;;;;7.03;4.73;;;27.20;66.10;;;;;;5052072;28;20408;-68
2021/08/14 10:35:12;;;;;;;7.80;5.10;;;27.20;64.70;;;;;;5037360;28;20478;-67
2021/08/14 10:37:49;;;;;;;8.03;5.20;;;27.30;66.70;;;;;;5051858;28;20473;-67
2021/08/14 10:40:16;;;;;;;6.03;5.43;;;27.30;63.10;;;;;;5052919;28;20404;-67
2021/08/14 10:42:54;;;;;;;7.00;6.40;;;27.30;61.00;;;;;;5051885;28;20753;-67
2021/08/14 10:45:34;;;;;;;6.40;5.97;;;27.40;63.40;;;;;;5051870;28;20451;-68
2021/08/14 10:48:04;;;;;;;5.60;5.07;;;27.40;60.60;;;;;;5052522;28;20424;-67
2021/08/14 10:50:32;;;;;;;5.37;4.90;;;27.30;60.60;;;;;;5055422;28;20484;-67
2021/08/14 10:53:13;;;;;;;6.10;4.63;;;27.40;59.90;;;;;;5056462;28;20439;-67
2021/08/14 10:55:46;;;;;;;5.27;4.70;;;27.50;62.40;;;;;;5038150;28;20939;-67
2021/08/14 10:58:23;;;;;;;6.10;4.70;;;27.60;61.80;;;;;;5038503;28;20404;-67
2021/08/14 11:00:53;;;;;;;4.90;4.50;;;27.70;63.20;;;;;;5056683;28;20491;-67
2021/08/14 11:03:29;;;;;;;5.83;4.87;;;27.80;59.70;;;;;;5056311;28;20392;-69
2021/08/14 11:05:55;;;;;;;5.47;5.07;;;27.90;58.70;;;;;;5056466;28;20400;-67
2021/08/14 11:08:29;;;;;;;5.33;4.83;;;28.00;59.10;;;;;;5055638;28;20408;-68
2021/08/14 11:10:56;;;;;;;6.40;5.07;;;28.10;59.50;;;;;;5056687;28;20507;-67
2021/08/14 11:13:31;;;;;;;5.60;5.00;;;28.10;59.40;;;;;;5055361;28;20937;-66
2021/08/14 11:15:58;;;;;;;6.27;5.23;;;28.20;59.50;;;;;;5056223;28;20395;-65
2021/08/14 11:18:55;;;;;;;5.90;5.40;;;28.30;60.40;;;;;;5055455;28;20503;-66
2021/08/14 11:21:45;;;;;;;4.80;4.30;;;28.40;58.90;;;;;;5055422;28;20424;-66
2021/08/14 11:24:37;;;;;;;4.67;4.33;;;28.50;59.60;;;;;;5055950;28;20450;-65
2021/08/14 11:27:16;;;;;;;6.83;6.23;;;28.50;57.80;;;;;;5055976;28;20407;-65
2021/08/14 11:29:43;;;;;;;10.20;9.30;;;28.60;59.60;;;;;;5055326;28;20396;-65
2021/08/14 11:32:10;;;;;;;5.37;4.87;;;28.70;63.50;;;;;;5055787;28;20403;-65
2021/08/14 11:34:35;;;;;;;6.30;4.77;;;28.80;58.30;;;;;;5055211;28;20442;-65
2021/08/14 11:37:01;;;;;;;7.00;6.30;;;29.00;58.50;;;;;;5055708;28;20440;-65
2021/08/14 11:39:33;;;;;;;8.23;7.57;;;29.10;57.70;;;;;;5055135;28;20182;-66
2021/08/14 11:41:59;;;;;;;6.30;5.40;;;29.10;57.70;;;;;;5055562;28;20181;-65
2021/08/14 11:44:25;;;;;;;7.13;6.43;;;29.20;58.50;;;;;;5054870;28;20454;-66
2021/08/14 11:47:08;;;;;;;5.63;5.23;;;29.30;58.40;;;;;;5055153;28;20182;-65
2021/08/14 11:49:53;;;;;;;5.70;5.13;;;29.50;58.50;;;;;;5054861;28;20463;-65
2021/08/14 11:52:22;;;;;;;5.33;4.93;;;29.40;56.90;;;;;;5055313;28;20533;-65
2021/08/14 11:54:55;;;;;;;5.87;5.30;;;29.40;56.80;;;;;;5055585;28;20416;-65
2021/08/14 11:57:26;;;;;;;5.30;4.80;;;29.40;56.30;;;;;;5055408;28;20385;-66
2021/08/14 11:59:51;;;;;;;5.33;4.93;;;29.40;57.70;;;;;;5054979;28;20389;-65
2021/08/14 12:02:17;;;;;;;5.17;4.73;;;29.30;54.50;;;;;;5054904;28;20397;-65
2021/08/14 12:04:44;;;;;;;5.57;5.13;;;29.20;56.00;;;;;;5054303;28;20221;-66
2021/08/14 12:07:13;;;;;;;5.03;4.63;;;29.20;54.90;;;;;;5037374;28;20527;-65
2021/08/14 12:09:39;;;;;;;5.40;4.90;;;29.10;55.50;;;;;;5054905;28;20416;-65
2021/08/14 12:12:05;;;;;;;5.03;4.73;;;29.20;56.40;;;;;;5054813;28;20431;-65
2021/08/14 12:14:30;;;;;;;5.50;5.00;;;29.20;56.20;;;;;;5054342;28;20451;-66
2021/08/14 12:17:00;;;;;;;4.93;4.63;;;29.20;56.20;;;;;;5055054;28;20447;-65
2021/08/14 12:19:27;;;;;;;5.77;5.23;;;29.30;56.80;;;;;;5054494;28;20656;-65
2021/08/14 12:22:11;;;;;;;5.90;5.23;;;29.30;55.00;;;;;;5054942;28;20442;-65
2021/08/14 12:24:37;;;;;;;5.40;5.03;;;29.30;56.20;;;;;;5054198;28;20451;-65
2021/08/14 12:27:24;;;;;;;7.00;6.37;;;29.30;57.40;;;;;;5054794;28;20392;-65
2021/08/14 12:29:51;;;;;;;7.20;4.60;;;29.20;54.10;;;;;;5054828;28;20420;-65
2021/08/14 12:32:16;;;;;;;4.30;4.00;;;29.00;53.70;;;;;;5054672;28;20413;-65
2021/08/14 12:34:44;;;;;;;4.63;4.23;;;29.00;54.50;;;;;;5053634;28;20427;-65
2021/08/14 12:37:12;;;;;;;5.53;4.73;;;28.80;55.60;;;;;;5054706;28;20180;-65
2021/08/14 12:39:56;;;;;;;6.73;4.70;;;28.70;55.10;;;;;;5036192;28;20428;-65
2021/08/14 12:42:36;;;;;;;6.13;4.70;;;28.60;54.70;;;;;;5054513;28;20420;-65
2021/08/14 12:45:18;;;;;;;5.37;4.40;;;28.70;56.70;;;;;;5054181;28;20450;-65